Time;durP1;ratioP1;P1;durP2;ratioP2;P2;SDS_P1;SDS_P2;PMS_P1;PMS_P2;Temp;Humidity;BMP_temperature;BMP_pressure;BME280_temperature;BME280_humidity;BME280_pressure;Samples;Min_cycle;Max_cycle;Signal;HPM_P1;HPM_P2
2022/01/31 00:00:10;;;;;;;10.43;2.03;;;3.80;99.90;;;;;;4658780;30;20041;-86
2022/01/31 00:02:35;;;;;;;17.95;4.38;;;3.90;99.90;;;;;;4646585;30;20588;-86
2022/01/31 00:05:03;;;;;;;10.18;3.50;;;4.00;99.90;;;;;;4661458;30;20068;-86
2022/01/31 00:07:28;;;;;;;18.23;4.05;;;4.00;99.90;;;;;;4660232;30;20492;-86
2022/01/31 00:09:54;;;;;;;13.88;4.18;;;4.10;99.90;;;;;;4648637;30;20049;-86
2022/01/31 00:12:20;;;;;;;11.82;3.55;;;4.10;99.90;;;;;;4697449;30;20065;-86
2022/01/31 00:14:49;;;;;;;14.52;3.95;;;4.20;99.90;;;;;;4694626;30;20604;-86
2022/01/31 00:17:16;;;;;;;17.85;4.30;;;4.30;99.90;;;;;;4699926;30;20196;-86
2022/01/31 00:19:43;;;;;;;13.48;4.45;;;4.30;99.90;;;;;;4710079;30;20157;-86
2022/01/31 00:22:11;;;;;;;9.25;3.80;;;4.40;99.90;;;;;;4708986;30;20358;-86
2022/01/31 00:24:37;;;;;;;9.55;3.35;;;4.40;99.90;;;;;;4700753;30;20045;-86
2022/01/31 00:27:04;;;;;;;16.33;4.30;;;4.40;99.90;;;;;;4698950;30;20133;-86
2022/01/31 00:29:30;;;;;;;16.52;5.07;;;4.50;99.90;;;;;;4702606;30;20045;-85
2022/01/31 00:31:56;;;;;;;13.73;4.68;;;4.50;99.90;;;;;;4705451;30;20049;-86
2022/01/31 00:34:22;;;;;;;12.00;4.55;;;4.50;99.90;;;;;;4687178;30;20095;-85
2022/01/31 00:36:48;;;;;;;10.75;4.47;;;4.50;99.90;;;;;;4702495;30;20056;-86
2022/01/31 00:39:14;;;;;;;13.68;4.40;;;4.50;99.90;;;;;;4718058;30;20045;-86
2022/01/31 00:41:40;;;;;;;15.63;4.28;;;4.50;99.90;;;;;;4701895;30;20716;-86
2022/01/31 00:44:18;;;;;;;13.55;5.22;;;4.50;99.90;;;;;;4709108;30;20054;-86
2022/01/31 00:47:03;;;;;;;16.40;4.95;;;4.50;99.90;;;;;;4703922;30;20140;-86
2022/01/31 00:51:57;;;;;;;15.23;5.20;;;4.50;99.90;;;;;;4702260;30;20102;-86
2022/01/31 00:54:23;;;;;;;16.48;5.63;;;4.60;99.90;;;;;;4716332;30;20464;-86
2022/01/31 00:56:49;;;;;;;15.75;6.55;;;4.60;99.90;;;;;;4699824;30;20049;-86
2022/01/31 00:59:15;;;;;;;16.85;6.05;;;4.60;99.90;;;;;;4700586;30;20404;-86
2022/01/31 01:01:40;;;;;;;16.25;5.63;;;4.50;99.90;;;;;;4717312;30;21307;-86
2022/01/31 01:04:06;;;;;;;17.92;6.88;;;4.60;99.90;;;;;;4705809;30;20041;-86
2022/01/31 01:06:32;;;;;;;14.02;5.28;;;4.50;99.90;;;;;;4706286;30;20045;-86
2022/01/31 01:08:57;;;;;;;18.30;6.43;;;4.50;99.90;;;;;;4690085;30;20049;-86
2022/01/31 01:11:23;;;;;;;16.23;6.93;;;4.50;99.90;;;;;;4706647;30;20671;-86
2022/01/31 01:13:49;;;;;;;17.17;6.50;;;4.50;99.90;;;;;;4704314;30;20088;-86
2022/01/31 01:16:15;;;;;;;16.08;6.78;;;4.40;99.90;;;;;;4702267;30;20054;-86
2022/01/31 01:18:40;;;;;;;13.75;6.30;;;4.30;99.90;;;;;;4704016;30;20231;-86
2022/01/31 01:21:06;;;;;;;20.88;7.40;;;4.30;99.90;;;;;;4701688;30;20049;-87
2022/01/31 01:23:32;;;;;;;15.48;5.88;;;4.30;99.90;;;;;;4689628;30;20064;-86
2022/01/31 01:25:57;;;;;;;18.63;7.55;;;4.20;99.90;;;;;;4704529;30;20469;-86
2022/01/31 01:28:25;;;;;;;18.40;6.78;;;4.10;99.90;;;;;;4702544;30;20044;-87
2022/01/31 01:30:51;;;;;;;19.33;6.45;;;4.10;99.90;;;;;;4703507;30;20060;-86
2022/01/31 01:33:22;;;;;;;13.27;5.55;;;4.10;99.90;;;;;;4702867;30;20041;-86
2022/01/31 01:35:50;;;;;;;17.55;7.38;;;4.10;99.90;;;;;;4704153;30;20146;-87
2022/01/31 01:38:17;;;;;;;17.17;7.30;;;4.00;99.90;;;;;;4704138;30;20102;-86
2022/01/31 01:40:45;;;;;;;18.08;6.75;;;4.00;99.90;;;;;;4703985;30;20453;-86
2022/01/31 01:43:11;;;;;;;18.38;7.00;;;4.00;99.90;;;;;;4702137;30;20044;-86
2022/01/31 01:45:40;;;;;;;16.90;6.60;;;4.00;99.90;;;;;;4704889;30;20055;-86
2022/01/31 01:48:07;;;;;;;16.27;6.97;;;4.00;99.90;;;;;;4714965;30;20168;-86
2022/01/31 01:50:42;;;;;;;18.13;7.05;;;4.00;99.90;;;;;;4701722;30;20065;-88
2022/01/31 01:53:08;;;;;;;14.73;5.20;;;4.00;99.90;;;;;;4702768;30;20045;-87
2022/01/31 01:55:34;;;;;;;16.80;6.28;;;4.00;99.90;;;;;;4703327;30;20111;-86
2022/01/31 01:58:00;;;;;;;16.73;5.75;;;4.00;99.90;;;;;;4701425;30;20049;-87
2022/01/31 02:00:28;;;;;;;11.65;4.57;;;4.00;99.90;;;;;;4716521;30;20127;-86
2022/01/31 02:02:55;;;;;;;12.68;6.28;;;4.00;99.90;;;;;;4701113;30;20135;-86
2022/01/31 02:05:22;;;;;;;12.13;5.63;;;4.00;99.90;;;;;;4714700;30;20137;-87
2022/01/31 02:07:48;;;;;;;11.88;4.93;;;4.00;99.90;;;;;;4688248;30;20073;-87
2022/01/31 02:10:16;;;;;;;13.13;5.75;;;4.00;99.90;;;;;;4703579;30;20135;-86
2022/01/31 02:12:47;;;;;;;17.27;4.95;;;4.00;99.90;;;;;;4701864;30;20114;-86
2022/01/31 02:15:14;;;;;;;15.07;5.97;;;4.00;99.90;;;;;;4702711;30;20053;-86
2022/01/31 02:17:40;;;;;;;16.52;6.40;;;4.00;99.90;;;;;;4704603;30;20056;-86
2022/01/31 02:20:08;;;;;;;11.45;5.05;;;4.00;99.90;;;;;;4684784;30;20053;-86
2022/01/31 02:22:34;;;;;;;15.52;5.80;;;4.00;99.90;;;;;;4701613;30;20103;-86
2022/01/31 02:25:00;;;;;;;11.45;4.47;;;4.00;99.90;;;;;;4700376;30;20061;-86
2022/01/31 02:27:28;;;;;;;8.15;3.15;;;4.00;99.90;;;;;;4701127;30;20128;-85
2022/01/31 02:29:54;;;;;;;15.35;5.28;;;4.00;99.90;;;;;;4702420;30;20048;-86
2022/01/31 02:32:22;;;;;;;11.88;4.38;;;4.00;99.90;;;;;;4687443;30;20048;-86
2022/01/31 02:34:48;;;;;;;10.40;3.55;;;4.00;99.90;;;;;;4700593;30;20053;-86
2022/01/31 02:37:14;;;;;;;8.18;3.50;;;4.00;99.90;;;;;;4699166;30;20049;-86
2022/01/31 02:39:40;;;;;;;10.45;3.80;;;4.10;99.90;;;;;;4700445;30;20107;-86
2022/01/31 02:42:05;;;;;;;7.47;4.03;;;4.10;99.90;;;;;;4704382;30;20053;-86
2022/01/31 02:44:31;;;;;;;8.15;3.42;;;4.10;99.90;;;;;;4703279;30;20459;-86
2022/01/31 02:46:57;;;;;;;8.77;3.63;;;4.20;99.90;;;;;;4703399;30;20063;-86
2022/01/31 02:49:27;;;;;;;8.55;3.55;;;4.10;99.90;;;;;;4698382;30;20543;-86
2022/01/31 02:52:01;;;;;;;7.50;3.15;;;4.20;99.90;;;;;;4700783;30;20493;-87
2022/01/31 02:54:27;;;;;;;10.30;3.67;;;4.20;99.90;;;;;;4698084;30;20045;-86
2022/01/31 02:56:53;;;;;;;10.38;4.30;;;4.20;99.90;;;;;;4723741;30;20040;-86
2022/01/31 02:59:19;;;;;;;10.00;4.40;;;4.20;99.90;;;;;;4715347;30;20072;-85
2022/01/31 03:01:45;;;;;;;10.18;4.85;;;4.20;99.90;;;;;;4718168;30;20207;-85
2022/01/31 03:04:12;;;;;;;10.77;4.53;;;4.30;99.90;;;;;;4703151;30;20041;-85
2022/01/31 03:06:38;;;;;;;10.40;4.47;;;4.40;99.90;;;;;;4700145;30;20140;-86
2022/01/31 03:09:05;;;;;;;10.98;5.10;;;4.40;99.90;;;;;;4699112;30;20459;-85
2022/01/31 03:11:31;;;;;;;12.52;4.68;;;4.50;99.90;;;;;;4701904;30;20049;-86
2022/01/31 03:13:57;;;;;;;15.90;5.55;;;4.60;99.90;;;;;;4702102;30;20041;-85
2022/01/31 03:16:22;;;;;;;11.82;5.95;;;4.60;99.90;;;;;;4688206;30;20082;-85
2022/01/31 03:18:48;;;;;;;13.63;5.20;;;4.80;99.90;;;;;;4698505;30;20085;-86
2022/01/31 03:21:14;;;;;;;13.38;4.70;;;4.80;99.90;;;;;;4698171;30;20068;-85
2022/01/31 03:23:40;;;;;;;11.25;5.15;;;4.90;99.90;;;;;;4700101;30;20136;-85
2022/01/31 03:26:06;;;;;;;11.13;3.05;;;4.90;99.90;;;;;;4699960;30;20060;-85
2022/01/31 03:28:31;;;;;;;13.63;2.15;;;5.10;99.90;;;;;;4703168;30;20049;-85
2022/01/31 03:30:57;;;;;;;9.13;2.15;;;5.20;99.90;;;;;;4702813;30;20056;-86
2022/01/31 03:33:23;;;;;;;15.40;1.65;;;5.30;99.90;;;;;;4701627;30;20448;-85
2022/01/31 03:35:48;;;;;;;8.32;1.65;;;5.40;99.90;;;;;;4716337;30;20071;-86
2022/01/31 03:38:14;;;;;;;10.25;1.77;;;5.50;99.90;;;;;;4701710;30;20468;-86
2022/01/31 03:40:40;;;;;;;16.83;1.63;;;5.50;99.90;;;;;;4699398;30;20091;-86
2022/01/31 03:43:05;;;;;;;16.00;2.33;;;5.60;99.90;;;;;;4701440;30;20728;-86
2022/01/31 03:45:34;;;;;;;19.00;4.15;;;5.60;99.90;;;;;;4702602;30;20045;-86
2022/01/31 03:48:00;;;;;;;17.67;2.55;;;5.60;99.90;;;;;;4701561;30;20123;-86
2022/01/31 03:50:27;;;;;;;11.95;1.77;;;5.70;99.90;;;;;;4696638;30;20072;-86
2022/01/31 03:52:53;;;;;;;13.13;2.05;;;5.80;99.90;;;;;;4701803;30;20160;-86
2022/01/31 03:55:19;;;;;;;11.98;2.92;;;5.80;99.90;;;;;;4699227;30;20045;-85
2022/01/31 03:57:45;;;;;;;12.95;1.98;;;5.80;99.90;;;;;;4693339;30;20562;-86
2022/01/31 04:00:12;;;;;;;13.30;2.28;;;5.80;99.90;;;;;;4703871;30;20193;-86
2022/01/31 04:02:39;;;;;;;12.23;1.73;;;5.90;99.90;;;;;;4695196;30;20521;-87
2022/01/31 04:05:05;;;;;;;13.80;2.22;;;5.90;99.90;;;;;;4687085;30;20358;-86
2022/01/31 04:07:31;;;;;;;8.98;1.42;;;6.00;99.90;;;;;;4699339;30;20053;-85
2022/01/31 04:09:56;;;;;;;12.88;1.98;;;6.00;99.90;;;;;;4686254;30;20040;-86
2022/01/31 04:12:22;;;;;;;9.13;1.88;;;6.00;99.90;;;;;;4701517;30;20628;-88
2022/01/31 04:14:48;;;;;;;12.73;1.58;;;6.00;99.90;;;;;;4702881;30;20045;-86
2022/01/31 04:17:13;;;;;;;10.60;2.22;;;6.00;99.90;;;;;;4698204;30;20505;-86
2022/01/31 04:19:39;;;;;;;12.05;1.50;;;6.00;99.90;;;;;;4697056;30;20045;-86
2022/01/31 04:22:09;;;;;;;13.95;1.48;;;6.00;99.90;;;;;;4711106;30;20053;-86
2022/01/31 04:24:35;;;;;;;9.52;1.20;;;6.00;99.90;;;;;;4697988;30;20157;-87
2022/01/31 04:27:06;;;;;;;9.63;1.30;;;5.90;99.90;;;;;;4716450;30;20144;-86
2022/01/31 04:29:35;;;;;;;8.52;0.80;;;5.90;99.90;;;;;;4713141;30;20045;-86
2022/01/31 04:32:01;;;;;;;7.53;1.10;;;5.90;99.90;;;;;;4701606;30;20052;-85
2022/01/31 04:34:29;;;;;;;8.23;1.08;;;5.80;99.90;;;;;;4712479;30;20413;-86
2022/01/31 04:36:54;;;;;;;6.55;0.60;;;5.70;99.90;;;;;;4701310;30;20603;-86
2022/01/31 04:39:20;;;;;;;7.60;0.85;;;5.60;99.90;;;;;;4684956;30;20108;-85
2022/01/31 04:41:47;;;;;;;10.27;1.77;;;5.50;99.90;;;;;;4701143;30;20049;-85
2022/01/31 04:44:13;;;;;;;10.73;1.25;;;5.50;99.90;;;;;;4697258;30;20523;-86
2022/01/31 04:46:40;;;;;;;14.80;1.98;;;5.50;99.90;;;;;;4698446;30;20143;-86
2022/01/31 04:49:07;;;;;;;13.55;1.60;;;5.40;99.90;;;;;;4699783;30;20068;-86
2022/01/31 04:51:33;;;;;;;14.07;2.63;;;5.40;99.90;;;;;;4700429;30;20128;-86
2022/01/31 04:53:59;;;;;;;14.73;1.40;;;5.40;99.90;;;;;;4699065;30;20572;-86
2022/01/31 04:56:24;;;;;;;12.77;1.90;;;5.40;99.90;;;;;;4701282;30;20049;-86
2022/01/31 04:58:50;;;;;;;18.50;1.80;;;5.40;99.90;;;;;;4696092;30;20041;-86
2022/01/31 05:01:15;;;;;;;18.95;2.40;;;5.40;99.90;;;;;;4700429;30;20049;-86
2022/01/31 05:03:44;;;;;;;13.60;2.60;;;5.50;99.90;;;;;;4698949;30;20469;-86
2022/01/31 05:06:12;;;;;;;9.65;1.50;;;5.60;99.90;;;;;;4683677;30;20402;-86
2022/01/31 05:08:39;;;;;;;17.55;2.10;;;5.70;99.90;;;;;;4700247;30;20107;-86
2022/01/31 05:11:07;;;;;;;19.60;2.80;;;5.70;99.90;;;;;;4685377;30;20100;-86
2022/01/31 05:13:33;;;;;;;10.35;1.75;;;5.70;99.90;;;;;;4705076;30;20404;-86
2022/01/31 05:15:59;;;;;;;10.80;1.13;;;5.70;99.90;;;;;;4704110;30;20135;-86
2022/01/31 05:18:25;;;;;;;6.97;0.60;;;5.60;99.90;;;;;;4703836;30;20071;-87
2022/01/31 05:20:50;;;;;;;7.18;0.40;;;5.30;99.90;;;;;;4700094;30;20132;-86
2022/01/31 05:23:16;;;;;;;6.63;0.50;;;5.10;99.90;;;;;;4701605;30;20385;-86
2022/01/31 05:25:42;;;;;;;3.88;0.55;;;4.90;99.90;;;;;;4700455;30;20053;-86
2022/01/31 05:28:07;;;;;;;4.38;0.50;;;4.80;99.90;;;;;;4698296;30;20060;-86
2022/01/31 05:30:33;;;;;;;10.50;2.15;;;4.60;99.90;;;;;;4702037;30;20060;-86
2022/01/31 05:32:59;;;;;;;4.07;0.60;;;4.60;99.90;;;;;;4688926;30;20045;-86
2022/01/31 05:35:25;;;;;;;10.07;1.00;;;4.50;99.90;;;;;;4703804;30;20044;-85
2022/01/31 05:37:50;;;;;;;9.88;1.05;;;4.50;99.90;;;;;;4699650;30;20500;-86
2022/01/31 05:40:16;;;;;;;5.68;0.73;;;4.50;99.90;;;;;;4717756;30;20060;-86
2022/01/31 05:42:42;;;;;;;6.57;0.80;;;4.50;99.90;;;;;;4703032;30;20368;-86
2022/01/31 05:45:08;;;;;;;8.18;1.10;;;4.60;99.90;;;;;;4698546;30;22405;-86
2022/01/31 05:47:35;;;;;;;8.73;1.08;;;4.60;99.90;;;;;;4699985;30;20085;-86
2022/01/31 05:50:01;;;;;;;7.45;0.80;;;4.70;99.90;;;;;;4707569;30;20440;-86
2022/01/31 05:52:27;;;;;;;11.60;0.95;;;4.70;99.90;;;;;;4683166;30;20133;-86
2022/01/31 05:54:52;;;;;;;11.68;1.23;;;4.70;99.90;;;;;;4700374;30;20045;-86
2022/01/31 05:57:18;;;;;;;12.48;1.27;;;4.80;99.90;;;;;;4701525;30;20040;-86
2022/01/31 05:59:44;;;;;;;15.50;2.08;;;4.80;99.90;;;;;;4694040;30;20048;-86
2022/01/31 06:02:09;;;;;;;14.05;1.88;;;4.80;99.90;;;;;;4695964;30;20784;-87
2022/01/31 06:04:35;;;;;;;13.18;1.20;;;4.90;99.90;;;;;;4681902;30;20144;-86
2022/01/31 06:07:01;;;;;;;10.57;1.77;;;4.90;99.90;;;;;;4698719;30;20056;-88
2022/01/31 06:09:28;;;;;;;9.90;0.90;;;5.00;99.90;;;;;;4697796;30;20052;-86
2022/01/31 06:11:55;;;;;;;16.80;1.52;;;4.90;99.90;;;;;;4710616;30;20113;-87
2022/01/31 06:14:21;;;;;;;12.57;1.63;;;5.00;99.90;;;;;;4694922;30;20128;-86
2022/01/31 06:16:46;;;;;;;9.25;1.33;;;5.00;99.90;;;;;;4700661;30;20075;-87
2022/01/31 06:19:13;;;;;;;16.55;2.10;;;5.00;99.90;;;;;;4697242;30;20049;-87
2022/01/31 06:21:38;;;;;;;21.00;2.03;;;5.10;99.90;;;;;;4694489;30;20099;-87
2022/01/31 06:24:09;;;;;;;12.05;1.20;;;5.20;99.90;;;;;;4696194;30;20065;-86
2022/01/31 06:26:37;;;;;;;10.30;1.48;;;5.30;99.90;;;;;;4710644;30;20045;-86
2022/01/31 06:29:03;;;;;;;9.18;1.42;;;5.30;99.90;;;;;;4710111;30;20108;-86
2022/01/31 06:31:29;;;;;;;12.93;0.93;;;5.30;99.90;;;;;;4695596;30;20132;-87
2022/01/31 06:33:55;;;;;;;7.13;1.27;;;5.30;99.90;;;;;;4680866;30;20049;-86
2022/01/31 06:36:23;;;;;;;6.47;1.23;;;5.30;99.90;;;;;;4681140;30;20048;-86
2022/01/31 06:38:49;;;;;;;8.68;1.33;;;5.20;99.90;;;;;;4699780;30;20269;-87
2022/01/31 06:41:17;;;;;;;9.38;1.23;;;5.20;99.90;;;;;;4696459;30;20420;-86
2022/01/31 06:43:44;;;;;;;6.53;0.70;;;5.10;99.90;;;;;;4700501;30;20053;-86
2022/01/31 06:46:10;;;;;;;12.05;0.70;;;5.10;99.90;;;;;;4694819;30;20044;-87
2022/01/31 06:48:35;;;;;;;10.00;1.08;;;5.10;99.90;;;;;;4695971;30;20398;-87
2022/01/31 06:51:01;;;;;;;8.10;1.08;;;5.00;99.90;;;;;;4699400;30;20205;-87
2022/01/31 06:53:28;;;;;;;12.90;1.73;;;5.10;99.90;;;;;;4695235;30;20037;-86
2022/01/31 06:55:55;;;;;;;10.00;1.08;;;5.00;99.90;;;;;;4697843;30;21039;-87
2022/01/31 06:58:21;;;;;;;14.23;1.67;;;5.10;99.90;;;;;;4695737;30;20059;-86
2022/01/31 07:00:47;;;;;;;13.88;1.50;;;5.10;99.90;;;;;;4698749;30;20432;-86
2022/01/31 07:03:13;;;;;;;5.50;0.80;;;5.20;99.90;;;;;;4697940;30;20056;-86
2022/01/31 07:05:45;;;;;;;11.65;0.93;;;5.20;99.90;;;;;;4699132;30;20076;-86
2022/01/31 07:08:12;;;;;;;9.48;1.05;;;5.20;99.90;;;;;;4695309;30;20167;-86
2022/01/31 07:10:38;;;;;;;9.02;1.35;;;5.20;99.90;;;;;;4692687;30;20105;-86
2022/01/31 07:13:22;;;;;;;8.45;1.00;;;5.20;99.90;;;;;;4696701;30;20049;-86
2022/01/31 07:15:48;;;;;;;10.27;1.33;;;5.20;99.90;;;;;;4684017;30;20045;-87
2022/01/31 07:18:13;;;;;;;11.57;1.80;;;5.20;99.90;;;;;;4697950;30;20036;-87
2022/01/31 07:20:41;;;;;;;17.10;1.90;;;5.20;99.90;;;;;;4694539;30;20041;-86
2022/01/31 07:23:18;;;;;;;10.07;1.77;;;5.20;99.90;;;;;;4697480;30;20492;-87
2022/01/31 07:25:44;;;;;;;9.13;1.15;;;5.20;99.90;;;;;;4698644;30;20045;-86
2022/01/31 07:28:16;;;;;;;7.45;1.13;;;5.20;99.90;;;;;;4698850;30;20434;-86
2022/01/31 07:30:46;;;;;;;11.55;1.30;;;5.20;99.90;;;;;;4684004;30;20164;-86
2022/01/31 07:33:12;;;;;;;13.18;1.92;;;5.30;99.90;;;;;;4700283;30;20053;-86
2022/01/31 07:35:38;;;;;;;12.20;1.48;;;5.20;99.90;;;;;;4698523;30;20041;-87
2022/01/31 07:38:04;;;;;;;9.10;2.33;;;5.30;99.90;;;;;;4694857;30;20111;-87
2022/01/31 07:40:30;;;;;;;7.40;0.98;;;5.30;99.90;;;;;;4681404;30;20181;-87
2022/01/31 07:42:55;;;;;;;13.50;1.77;;;5.30;99.90;;;;;;4692171;30;20052;-87
2022/01/31 07:45:21;;;;;;;12.73;1.13;;;5.40;99.90;;;;;;4685324;30;20063;-86
2022/01/31 07:47:47;;;;;;;12.95;1.23;;;5.40;99.90;;;;;;4701082;30;20064;-87
2022/01/31 07:50:13;;;;;;;13.93;1.50;;;5.40;99.90;;;;;;4677710;30;20081;-87
2022/01/31 07:52:40;;;;;;;13.27;1.45;;;5.30;99.90;;;;;;4695076;30;20521;-86
2022/01/31 07:55:06;;;;;;;9.15;1.50;;;5.30;99.90;;;;;;4694115;30;20072;-87
2022/01/31 07:57:31;;;;;;;8.77;1.15;;;5.30;99.90;;;;;;4698940;30;20085;-87
2022/01/31 07:59:57;;;;;;;10.90;1.48;;;5.30;99.90;;;;;;4698803;30;20064;-86
2022/01/31 08:02:23;;;;;;;11.25;1.45;;;5.30;99.90;;;;;;4701098;30;20133;-86
2022/01/31 08:04:49;;;;;;;5.88;0.80;;;5.30;99.90;;;;;;4696474;30;20172;-87
2022/01/31 08:07:16;;;;;;;10.13;0.95;;;5.40;99.90;;;;;;4697091;30;20140;-86
2022/01/31 08:09:42;;;;;;;5.97;0.68;;;5.40;99.90;;;;;;4696666;30;20045;-86
2022/01/31 08:12:08;;;;;;;8.30;1.08;;;5.40;99.90;;;;;;4697188;30;20037;-86
2022/01/31 08:14:33;;;;;;;5.05;0.93;;;5.40;99.90;;;;;;4696787;30;20045;-87
2022/01/31 08:17:00;;;;;;;12.18;1.20;;;5.40;99.90;;;;;;4693492;30;20045;-87
2022/01/31 08:19:26;;;;;;;10.70;2.00;;;5.50;99.90;;;;;;4695979;30;20044;-87
2022/01/31 08:21:54;;;;;;;16.48;1.88;;;5.50;99.90;;;;;;4692967;30;20128;-87
2022/01/31 08:24:19;;;;;;;21.45;2.25;;;5.60;99.90;;;;;;4696824;30;20088;-87
2022/01/31 08:26:45;;;;;;;19.63;2.30;;;5.60;99.90;;;;;;4694190;30;20473;-87
2022/01/31 08:29:29;;;;;;;19.80;2.28;;;5.70;99.90;;;;;;4697088;30;20049;-87
2022/01/31 08:31:57;;;;;;;26.15;3.70;;;5.60;99.90;;;;;;4696113;30;20087;-87
2022/01/31 08:35:47;;;;;;;22.65;2.90;;;5.70;99.90;;;;;;4694226;30;20060;-87
2022/01/31 08:37:14;;;;;;;18.90;2.10;;;5.70;99.90;;;;;;4696761;30;20064;-87
2022/01/31 08:39:40;;;;;;;18.27;2.33;;;5.80;99.90;;;;;;4715188;30;20071;-86
2022/01/31 08:42:06;;;;;;;15.35;2.53;;;5.80;99.90;;;;;;4695881;30;20135;-87
2022/01/31 08:44:32;;;;;;;17.67;1.70;;;5.80;99.90;;;;;;4695161;30;20045;-87
2022/01/31 08:46:57;;;;;;;16.77;2.10;;;5.70;99.90;;;;;;4700614;30;20060;-87
2022/01/31 08:49:23;;;;;;;19.35;2.00;;;5.70;99.90;;;;;;4686665;30;20059;-87
2022/01/31 08:51:49;;;;;;;13.45;1.73;;;5.70;99.90;;;;;;4701877;30;20063;-88
2022/01/31 08:54:15;;;;;;;11.57;1.23;;;5.70;99.90;;;;;;4699325;30;20049;-87
2022/01/31 08:56:44;;;;;;;17.38;1.40;;;5.80;99.90;;;;;;4700520;30;20509;-87
2022/01/31 08:59:17;;;;;;;11.15;0.98;;;5.80;99.90;;;;;;4701582;30;20049;-87
2022/01/31 09:01:52;;;;;;;10.77;1.27;;;5.80;99.90;;;;;;4701605;30;20052;-87
2022/01/31 09:04:41;;;;;;;8.88;1.10;;;5.80;99.90;;;;;;4700394;30;20531;-87
2022/01/31 09:07:07;;;;;;;4.78;0.52;;;5.80;99.90;;;;;;4714003;30;20144;-87
2022/01/31 09:09:32;;;;;;;7.00;0.90;;;5.90;99.90;;;;;;4702863;30;20124;-87
2022/01/31 09:11:58;;;;;;;8.07;0.88;;;5.90;99.90;;;;;;4700309;30;20045;-87
2022/01/31 09:14:25;;;;;;;3.38;0.88;;;5.90;99.90;;;;;;4701253;30;20053;-87
2022/01/31 09:16:51;;;;;;;2.67;0.50;;;5.90;99.90;;;;;;4700147;30;20054;-87
2022/01/31 09:19:18;;;;;;;6.57;0.70;;;6.00;99.90;;;;;;4701413;30;20135;-87
2022/01/31 09:21:44;;;;;;;2.25;0.20;;;6.00;99.90;;;;;;4686007;30;20048;-87
2022/01/31 09:24:10;;;;;;;4.68;0.30;;;6.20;99.90;;;;;;4700700;30;20045;-87
2022/01/31 09:26:37;;;;;;;6.03;0.55;;;6.20;99.90;;;;;;4686322;30;20067;-87
2022/01/31 09:29:03;;;;;;;2.88;0.77;;;6.10;99.90;;;;;;4700136;30;20539;-87
2022/01/31 09:31:29;;;;;;;7.15;0.65;;;6.20;99.90;;;;;;4698495;30;20460;-87
2022/01/31 09:33:55;;;;;;;5.90;0.60;;;6.20;99.90;;;;;;4700536;30;20049;-87
2022/01/31 09:36:22;;;;;;;6.35;0.57;;;6.20;99.90;;;;;;4700945;30;20148;-87
2022/01/31 09:38:48;;;;;;;5.85;0.50;;;6.30;99.90;;;;;;4700467;30;20049;-87
2022/01/31 09:41:19;;;;;;;3.28;0.40;;;6.40;99.90;;;;;;4699808;30;20053;-87
2022/01/31 09:46:33;;;;;;;4.78;0.73;;;6.50;99.90;;;;;;4699843;30;20053;-87
2022/01/31 09:48:58;;;;;;;3.65;0.50;;;6.50;99.90;;;;;;4714756;30;20057;-87
2022/01/31 09:51:26;;;;;;;5.80;0.45;;;6.50;99.90;;;;;;4700186;30;20430;-88
2022/01/31 09:54:01;;;;;;;5.63;0.50;;;6.60;99.90;;;;;;4701499;30;20047;-87
2022/01/31 09:56:38;;;;;;;10.02;0.65;;;6.70;99.90;;;;;;4700148;30;20041;-87
2022/01/31 09:59:06;;;;;;;10.48;1.13;;;6.70;99.90;;;;;;4697410;30;20060;-87
2022/01/31 10:01:32;;;;;;;10.25;0.68;;;6.70;99.90;;;;;;4713451;30;20148;-87
2022/01/31 10:04:07;;;;;;;12.10;1.15;;;6.70;99.90;;;;;;4685905;30;20068;-88
2022/01/31 10:06:35;;;;;;;5.75;0.50;;;6.70;99.90;;;;;;4700375;30;20492;-87
2022/01/31 10:09:09;;;;;;;6.53;0.85;;;6.70;99.90;;;;;;4701424;30;20531;-87
2022/01/31 10:11:49;;;;;;;7.80;1.42;;;6.80;99.90;;;;;;4699550;30;20041;-87
2022/01/31 10:17:05;;;;;;;9.13;1.15;;;7.00;99.90;;;;;;4700796;30;20045;-87
2022/01/31 10:19:39;;;;;;;7.13;1.00;;;7.00;99.90;;;;;;4698723;30;20048;-88
2022/01/31 10:22:07;;;;;;;10.45;1.52;;;7.00;99.90;;;;;;4696245;30;20041;-87
2022/01/31 10:24:35;;;;;;;7.70;0.77;;;6.90;99.90;;;;;;4697816;30;20613;-87
2022/01/31 10:27:11;;;;;;;10.70;0.70;;;6.90;99.90;;;;;;4699493;30;20041;-87
2022/01/31 10:29:38;;;;;;;4.95;0.73;;;6.90;99.90;;;;;;4696104;30;20053;-88
2022/01/31 10:32:16;;;;;;;7.75;0.45;;;6.90;99.90;;;;;;4705410;30;20535;-88
2022/01/31 10:35:02;;;;;;;8.65;0.80;;;7.00;99.90;;;;;;4694229;30;20132;-88
2022/01/31 10:37:31;;;;;;;6.28;0.60;;;7.00;99.90;;;;;;4701860;30;20420;-88
2022/01/31 10:53:59;;;;;;;2.15;0.20;;;6.50;99.90;;;;;;4698987;30;20394;-87
2022/01/31 10:56:42;;;;;;;4.10;0.32;;;6.50;99.90;;;;;;4712858;30;20048;-87
2022/01/31 10:59:12;;;;;;;5.10;0.47;;;6.50;99.90;;;;;;4699787;30;20635;-87
2022/01/31 11:01:39;;;;;;;6.97;0.50;;;6.40;99.90;;;;;;4699795;30;20139;-87
2022/01/31 11:04:07;;;;;;;3.60;0.32;;;6.40;99.90;;;;;;4698842;30;20451;-87
2022/01/31 11:06:34;;;;;;;10.25;0.60;;;6.30;99.90;;;;;;4702052;30;20049;-88
2022/01/31 11:09:07;;;;;;;2.65;0.17;;;6.30;99.90;;;;;;4699272;30;20053;-87
2022/01/31 11:11:35;;;;;;;4.05;0.50;;;6.30;99.90;;;;;;4699579;30;20052;-88
2022/01/31 11:14:03;;;;;;;3.53;0.25;;;6.30;99.90;;;;;;4698348;30;20052;-88
2022/01/31 11:16:29;;;;;;;3.67;0.40;;;6.30;99.90;;;;;;4684604;30;20541;-87
2022/01/31 11:18:58;;;;;;;6.20;0.30;;;6.30;99.90;;;;;;4694037;30;20049;-87
2022/01/31 11:21:28;;;;;;;3.40;0.20;;;6.30;99.90;;;;;;4700061;30;20060;-87
2022/01/31 11:24:01;;;;;;;0.98;0.20;;;6.30;99.90;;;;;;4697330;30;20117;-87
2022/01/31 11:26:46;;;;;;;1.75;0.40;;;6.30;99.90;;;;;;4700194;30;20041;-87
2022/01/31 11:29:12;;;;;;;1.23;0.20;;;6.30;99.90;;;;;;4698892;30;20053;-87
2022/01/31 11:31:39;;;;;;;3.20;0.22;;;6.20;99.90;;;;;;4702395;30;20037;-87
2022/01/31 11:34:07;;;;;;;3.75;0.30;;;6.20;99.90;;;;;;4701832;30;20049;-87
2022/01/31 11:36:35;;;;;;;6.90;0.77;;;6.30;99.90;;;;;;4697449;30;20084;-87
2022/01/31 11:39:06;;;;;;;6.45;1.05;;;6.30;99.90;;;;;;4699644;30;20056;-87
2022/01/31 11:41:34;;;;;;;8.07;0.75;;;6.40;99.90;;;;;;4698173;30;20056;-87
2022/01/31 11:44:07;;;;;;;11.98;1.27;;;6.40;99.90;;;;;;4699961;30;20041;-88
2022/01/31 11:46:34;;;;;;;12.88;1.20;;;6.40;99.90;;;;;;4692543;30;20042;-88
2022/01/31 11:49:15;;;;;;;18.58;2.55;;;6.40;99.90;;;;;;4706558;30;20417;-87
2022/01/31 11:52:10;;;;;;;13.00;1.80;;;6.50;99.90;;;;;;4699180;30;20052;-88
2022/01/31 11:55:08;;;;;;;20.95;2.83;;;6.60;99.90;;;;;;4686567;30;20116;-88
2022/01/31 11:57:36;;;;;;;21.55;2.78;;;6.70;99.90;;;;;;4696053;30;20173;-88
2022/01/31 12:00:11;;;;;;;22.30;2.28;;;6.70;99.90;;;;;;4682571;30;20084;-87
2022/01/31 12:02:46;;;;;;;20.25;3.45;;;6.80;99.90;;;;;;4698773;30;20127;-87
2022/01/31 12:05:16;;;;;;;22.30;3.58;;;6.80;99.90;;;;;;4697915;30;20068;-87
2022/01/31 12:07:47;;;;;;;26.73;3.78;;;6.80;99.90;;;;;;4692277;30;20560;-87
2022/01/31 12:10:23;;;;;;;22.00;4.07;;;6.90;99.90;;;;;;4691305;30;20042;-87
2022/01/31 12:13:14;;;;;;;27.85;3.22;;;6.90;99.90;;;;;;4696379;30;20115;-87
2022/01/31 12:16:09;;;;;;;26.20;2.38;;;6.90;99.90;;;;;;4708579;30;20052;-87
2022/01/31 12:24:08;;;;;;;17.10;2.60;;;6.90;99.90;;;;;;4690956;30;20041;-87
2022/01/31 12:26:50;;;;;;;18.20;3.15;;;6.90;99.90;;;;;;4694088;30;20491;-87
2022/01/31 12:29:19;;;;;;;22.80;2.58;;;6.90;99.90;;;;;;4684134;30;20041;-87
2022/01/31 12:31:54;;;;;;;17.38;1.92;;;7.00;99.90;;;;;;4695624;30;20224;-87
2022/01/31 12:34:22;;;;;;;20.50;2.47;;;7.10;99.90;;;;;;4695976;30;20789;-86
2022/01/31 12:36:58;;;;;;;10.75;1.70;;;7.10;99.90;;;;;;4693192;30;20045;-86
2022/01/31 12:39:41;;;;;;;10.70;1.55;;;7.10;99.90;;;;;;4698611;30;20064;-87
2022/01/31 12:45:38;;;;;;;11.25;1.73;;;7.60;99.90;;;;;;4698778;30;20393;-87
2022/01/31 12:48:15;;;;;;;12.82;1.77;;;8.50;99.90;;;;;;4698641;30;20061;-87
2022/01/31 12:50:48;;;;;;;13.95;1.45;;;8.60;99.90;;;;;;4696528;30;20398;-87
2022/01/31 12:53:23;;;;;;;17.98;1.67;;;8.50;99.90;;;;;;4697262;30;20052;-87
2022/01/31 12:55:58;;;;;;;10.27;1.40;;;8.40;99.90;;;;;;4698057;30;20053;-87
2022/01/31 12:58:38;;;;;;;11.30;1.65;;;8.30;99.90;;;;;;4698063;30;20110;-87
2022/01/31 13:01:18;;;;;;;8.95;1.05;;;8.20;99.90;;;;;;4697295;30;20057;-86
2022/01/31 13:03:47;;;;;;;8.75;1.20;;;8.00;99.90;;;;;;4698336;30;20127;-87
2022/01/31 13:06:32;;;;;;;18.92;2.20;;;7.90;99.90;;;;;;4696160;30;20130;-87
2022/01/31 13:09:19;;;;;;;8.23;0.90;;;7.90;99.90;;;;;;4696067;30;20275;-88
2022/01/31 13:11:49;;;;;;;11.20;1.05;;;7.90;99.90;;;;;;4686518;30;20377;-87
2022/01/31 13:14:18;;;;;;;8.73;1.10;;;7.90;99.90;;;;;;4710180;30;20119;-87
2022/01/31 13:17:16;;;;;;;11.35;1.20;;;8.10;99.90;;;;;;4695905;30;20511;-87
2022/01/31 13:20:08;;;;;;;14.10;1.55;;;8.50;99.90;;;;;;4698993;30;20421;-87
2022/01/31 13:22:38;;;;;;;12.43;1.50;;;8.50;99.90;;;;;;4706721;30;20057;-87
2022/01/31 13:25:11;;;;;;;12.73;1.30;;;8.30;99.90;;;;;;4698321;30;20029;-87
2022/01/31 13:27:41;;;;;;;17.42;2.10;;;8.20;99.90;;;;;;4691386;30;20084;-87